Maybee, MI (48159)

6:38 AM EST on December 10, 2016 (GMT -0500)
Raisinville Township | | Change Station
Active Advisory: Winter Storm Watch

Elev 623 ft 41.97 °N, 83.48 °W | Updated 26 seconds ago

Mostly Cloudy
Mostly Cloudy
23.7 °F
Feels Like 17 °F
N
5.6
Wind Variable Wind from West
Gusts 7.4 mph

Today
High -- | Low -- °F
--% Chance of Precip.
Yesterday
High -- | Low -- °F
Precip. -- in
Pressure 30.45 in
Visibility 10.0 miles
Clouds Mostly Cloudy 11000 ft
Windchill 17 °F
Dew Point 8 °F
Humidity 50%
Rainfall 0.00 in
Snow Depth Not available.
7:51 AM 5:02 PM
Waxing Gibbous, 83% visible
METAR KTTF 101112Z AUTO 26008KT 10SM BKN110 M05/M07 A3045 RMK AO2 T10471072
Pressure 30.45 in
Visibility 10.0 miles
Clouds Mostly Cloudy 11000 ft
Windchill 17 °F
Dew Point 8 °F
Humidity 50%
Rainfall 0.00 in
Snow Depth Not available.
7:51 AM 5:02 PM
Waxing Gibbous, 83% visible
METAR KTTF 101112Z AUTO 26008KT 10SM BKN110 M05/M07 A3045 RMK AO2 T10471072

10-Day Weather Forecast

Almanac

Astronomy

Dec. 10, 2016 Rise Set
Actual Time
Civil Twilight
Nautical Twilight
Astronomical Twilight
Moon
Length of Visible Light
Length of Day
Tomorrow will be .
, % of the Moon is Illuminated

Today's Extremes

State Highs State Lows

Community

WunderPhotos

Upload Photos

1,956,536 photos uploaded!

WunderBlog® & News

Nearby

Air Quality

  Air Quality AQ Index Pollutant
Not available.

Snow Depth

Station Depth Elevation

Earthquake Activity

City Distance Mag. Time & Date
Minimum magnitude displayed is 2.5.

Coastal Water Temperatures

Place Temperature

Stations

Nearby Weather Stations

Station Location Temp. Windchill Dew Point Humidity Wind Precip. Elev Updated Type
                   

Watches & Warnings

Winter Storm Watch
Issued: 4:01 AM EST Dec. 10, 2016 – National Weather Service

... Winter Storm Watch in effect from Sunday morning through late
Sunday night...

The National Weather Service in Detroit/Pontiac has issued a
Winter Storm Watch, which is in effect from Sunday morning
through late Sunday night.

Hazardous weather...

* a long duration of light to moderate snow will affect the area,
   resulting in storm total snowfall of 5 to 9 inches by late
   Sunday night.

* Light snow will begin between 5 am and 9 am. The highest
   intensity snow is expected Sunday afternoon and evening. The
   moisture content of the snow will also increase during the
   course of the afternoon and evening.

* There is still uncertainty in the intensity of this storm
   system as it moves into the region. This will have a large
   impact on storm total snowfall.

Impacts...

* roads will likely become snow covered and slick, impacting
   travel across the area.

Precautionary/preparedness actions...

A Winter Storm Watch means there is a potential for significant
snow accumulations that may impact travel. Continue to monitor
the latest forecasts.

* Prepare... plan... and stay informed. Visit
   http://go.USA.Gov/c7kkp



SC